createdAt,value
2023-05-12T00:02:20.648Z,10.48
2023-05-12T00:06:20.283Z,10.48
2023-05-12T00:10:15.526Z,10.49
2023-05-12T00:14:15.079Z,10.45
2023-05-12T00:18:11.004Z,10.48
2023-05-12T00:22:10.337Z,10.49
2023-05-12T00:26:05.354Z,10.53
2023-05-12T00:29:50.474Z,10.56
2023-05-12T00:33:35.536Z,10.60
2023-05-12T00:37:22.413Z,10.71
2023-05-12T00:41:07.517Z,10.74
2023-05-12T00:44:52.752Z,10.71
2023-05-12T00:48:44.027Z,10.81
2023-05-12T00:52:35.669Z,10.77
2023-05-12T00:56:31.783Z,10.61
2023-05-12T01:00:31.122Z,10.57
2023-05-12T01:04:26.470Z,10.53
2023-05-12T01:08:26.412Z,10.42
2023-05-12T01:12:21.732Z,10.33
2023-05-12T01:16:19.200Z,10.36
2023-05-12T01:20:19.647Z,10.22
2023-05-12T01:24:15.629Z,10.11
2023-05-12T01:28:00.571Z,10.08
2023-05-12T01:31:46.220Z,10.11
2023-05-12T01:35:41.707Z,10.05
2023-05-12T01:39:40.997Z,10.08
2023-05-12T01:43:38.624Z,9.91
2023-05-12T01:47:35.869Z,9.87
2023-05-12T01:51:38.237Z,9.86
2023-05-12T01:55:38.058Z,9.89
2023-05-12T01:59:34.038Z,9.93
2023-05-12T02:03:34.213Z,9.75
2023-05-12T02:07:29.832Z,9.75
2023-05-12T02:11:27.475Z,9.82
2023-05-12T02:15:20.525Z,9.80
2023-05-12T02:19:24.650Z,9.75
2023-05-12T02:23:19.803Z,9.79
2023-05-12T02:27:18.996Z,9.76
2023-05-12T02:31:14.876Z,9.74
2023-05-12T02:35:14.678Z,9.70
2023-05-12T02:39:08.363Z,9.83
2023-05-12T02:43:05.922Z,9.80
2023-05-12T02:47:06.362Z,9.82
2023-05-12T02:51:05.948Z,9.80
2023-05-12T02:55:01.781Z,9.99
2023-05-12T02:59:00.903Z,10.15
2023-05-12T03:02:56.985Z,10.41
2023-05-12T03:06:55.768Z,10.49
2023-05-12T03:10:57.689Z,10.76
2023-05-12T03:14:56.898Z,10.98
2023-05-12T03:18:58.375Z,11.15
2023-05-12T03:22:56.744Z,11.27
2023-05-12T03:26:58.249Z,11.47
2023-05-12T03:30:57.017Z,11.74
2023-05-12T03:34:58.241Z,11.86
2023-05-12T03:38:56.710Z,12.23
2023-05-12T03:42:58.444Z,12.53
2023-05-12T03:46:56.888Z,13.01
2023-05-12T03:50:58.437Z,13.46
2023-05-12T03:54:56.862Z,13.81
2023-05-12T03:58:58.333Z,14.11
2023-05-12T04:02:56.962Z,14.51
2023-05-12T04:06:57.721Z,14.86
2023-05-12T04:10:55.750Z,15.11
2023-05-12T04:14:57.360Z,15.52
2023-05-12T04:18:55.936Z,15.93
2023-05-12T04:22:57.336Z,16.24
2023-05-12T04:26:52.237Z,16.58
2023-05-12T04:30:49.503Z,16.85
2023-05-12T04:34:49.880Z,17.23
2023-05-12T04:38:51.310Z,17.59
2023-05-12T04:42:50.049Z,17.77
2023-05-12T04:46:51.813Z,17.99
2023-05-12T04:50:49.966Z,18.28
2023-05-12T04:54:49.809Z,18.59
2023-05-12T04:58:43.080Z,18.86
2023-05-12T05:02:40.233Z,19.24
2023-05-12T05:06:37.781Z,19.50
2023-05-12T05:10:37.660Z,19.46
2023-05-12T05:14:29.173Z,19.89
2023-05-12T05:18:29.152Z,20.26
2023-05-12T05:22:26.063Z,20.50
2023-05-12T05:26:20.975Z,20.62
2023-05-12T05:30:18.313Z,21.09
2023-05-12T05:34:18.757Z,21.40
2023-05-12T05:38:18.324Z,21.45
2023-05-12T05:42:14.160Z,21.64
2023-05-12T05:46:13.848Z,21.90
2023-05-12T05:50:10.235Z,22.16
2023-05-12T05:54:09.722Z,22.49
2023-05-12T05:58:02.957Z,22.61
2023-05-12T06:02:06.313Z,22.69
2023-05-12T06:06:02.285Z,22.86
2023-05-12T06:10:02.012Z,22.97
2023-05-12T06:13:57.480Z,23.15
2023-05-12T06:17:59.074Z,23.36
2023-05-12T06:21:54.900Z,23.75
2023-05-12T06:25:54.658Z,24.17
2023-05-12T06:29:50.180Z,24.43
2023-05-12T06:33:49.765Z,24.57
2023-05-12T06:37:45.195Z,24.64
2023-05-12T06:41:46.657Z,24.96
2023-05-12T06:45:49.556Z,25.04
2023-05-12T06:49:49.036Z,25.01
2023-05-12T06:53:49.781Z,25.38
2023-05-12T06:57:49.076Z,25.24
2023-05-12T07:01:44.471Z,25.19
2023-05-12T07:05:48.658Z,25.36
2023-05-12T07:09:48.532Z,25.55
2023-05-12T07:13:46.606Z,25.70
2023-05-12T07:17:37.514Z,25.58
2023-05-12T07:21:22.685Z,25.79
2023-05-12T07:25:07.785Z,25.96
2023-05-12T07:28:53.103Z,25.98
2023-05-12T07:32:38.346Z,26.29
2023-05-12T07:36:29.814Z,26.51
2023-05-12T07:40:21.241Z,26.84
2023-05-12T07:44:24.438Z,26.96
2023-05-12T07:48:24.760Z,27.18
2023-05-12T07:52:22.580Z,27.27
2023-05-12T07:56:21.681Z,27.59
2023-05-12T08:00:19.498Z,27.88
2023-05-12T08:04:19.903Z,27.94
2023-05-12T08:08:17.745Z,27.94
2023-05-12T08:12:02.914Z,27.84
2023-05-12T08:15:47.870Z,27.91
2023-05-12T08:19:32.993Z,28.10
2023-05-12T08:23:18.185Z,28.24
2023-05-12T08:27:03.133Z,28.19
2023-05-12T08:30:48.490Z,28.29
2023-05-12T08:34:33.574Z,28.60
2023-05-12T08:38:18.674Z,28.68
2023-05-12T08:42:10.458Z,28.41
2023-05-12T08:46:07.705Z,28.30
2023-05-12T08:50:08.066Z,28.06
2023-05-12T08:54:06.030Z,28.12
2023-05-12T08:58:06.730Z,28.46
2023-05-12T09:02:05.590Z,28.65
2023-05-12T09:06:05.790Z,28.54
2023-05-12T09:10:03.427Z,28.24
2023-05-12T09:13:56.644Z,28.02
2023-05-12T09:17:41.859Z,28.16
2023-05-12T09:21:26.822Z,28.46
2023-05-12T09:25:13.429Z,28.45
2023-05-12T09:29:05.559Z,28.44
2023-05-12T09:33:05.055Z,28.59
2023-05-12T09:37:04.884Z,28.87
2023-05-12T09:41:02.484Z,28.86
2023-05-12T09:45:02.042Z,28.91
2023-05-12T09:48:59.748Z,28.78
2023-05-12T09:53:03.011Z,28.75
2023-05-12T09:57:00.639Z,28.51
2023-05-12T10:01:21.043Z,28.49
2023-05-12T10:05:18.923Z,28.81
2023-05-12T10:09:18.932Z,29.25
2023-05-12T10:13:16.794Z,29.12
2023-05-12T10:17:16.816Z,29.10
2023-05-12T10:21:15.186Z,29.25
2023-05-12T10:25:15.137Z,29.23
2023-05-12T10:29:12.578Z,29.09
2023-05-12T10:33:11.904Z,28.73
2023-05-12T10:37:09.729Z,28.71
2023-05-12T10:41:09.902Z,28.96
2023-05-12T10:45:07.603Z,29.51
2023-05-12T10:49:07.950Z,29.89
2023-05-12T10:53:06.027Z,30.19
2023-05-12T10:57:05.634Z,30.16
2023-05-12T11:01:06.443Z,30.04
2023-05-12T11:05:12.930Z,30.07
2023-05-12T11:09:15.820Z,29.87
2023-05-12T11:13:12.539Z,29.69
2023-05-12T11:17:13.902Z,29.61
2023-05-12T11:21:09.651Z,29.89
2023-05-12T11:25:11.160Z,30.27
2023-05-12T11:29:09.485Z,30.21
2023-05-12T11:33:09.001Z,30.44
2023-05-12T11:37:07.612Z,30.69
2023-05-12T11:41:07.086Z,31.13
2023-05-12T11:45:05.676Z,31.48
2023-05-12T11:49:05.203Z,32.03
2023-05-12T11:53:03.762Z,32.32
2023-05-12T11:57:02.935Z,32.29
2023-05-12T12:01:01.541Z,32.47
2023-05-12T12:05:01.215Z,32.34
2023-05-12T12:08:59.616Z,31.88
2023-05-12T12:13:04.092Z,31.59
2023-05-12T12:17:01.713Z,31.45
2023-05-12T12:21:03.058Z,31.01
2023-05-12T12:24:59.091Z,30.61
2023-05-12T12:29:01.265Z,30.57
2023-05-12T12:32:52.875Z,30.62
2023-05-12T12:36:52.134Z,30.76
2023-05-12T12:40:47.800Z,31.04
2023-05-12T12:44:46.803Z,31.61
2023-05-12T12:48:42.761Z,31.91
2023-05-12T12:52:42.074Z,31.96
2023-05-12T12:56:37.704Z,32.46
2023-05-12T13:00:30.976Z,33.18
2023-05-12T13:04:25.845Z,33.81
2023-05-12T13:08:24.826Z,34.52
2023-05-12T13:12:17.657Z,34.84
2023-05-12T13:16:17.337Z,35.26
2023-05-12T13:20:08.767Z,35.42
2023-05-12T13:24:08.649Z,35.34
2023-05-12T13:27:59.839Z,35.41
2023-05-12T13:31:59.049Z,35.36
2023-05-12T13:35:58.729Z,35.29
2023-05-12T13:39:55.724Z,35.57
2023-05-12T13:43:50.909Z,35.56
2023-05-12T13:47:44.209Z,35.46
2023-05-12T13:51:40.146Z,35.68
2023-05-12T13:55:33.672Z,35.84
2023-05-12T13:59:29.258Z,35.88
2023-05-12T14:03:28.590Z,36.18
2023-05-12T14:07:23.795Z,36.07
2023-05-12T14:11:22.844Z,35.53
2023-05-12T14:19:20.418Z,35.35
2023-05-12T14:23:16.335Z,35.51
2023-05-12T14:27:15.679Z,35.53
2023-05-12T14:31:11.149Z,35.27
2023-05-12T14:35:10.886Z,34.57
2023-05-12T14:39:06.432Z,33.38
2023-05-12T14:43:05.679Z,32.44
2023-05-12T14:47:00.910Z,31.74
2023-05-12T14:51:00.804Z,31.29
2023-05-12T14:54:56.323Z,31.03
2023-05-12T14:58:55.831Z,30.75
2023-05-12T15:02:51.251Z,30.46
2023-05-12T15:06:50.611Z,30.22
2023-05-12T15:10:45.876Z,29.98
2023-05-12T15:14:45.540Z,29.75
2023-05-12T15:18:41.039Z,29.58
2023-05-12T15:22:40.152Z,29.31
2023-05-12T15:26:37.477Z,28.98
2023-05-12T15:30:38.542Z,28.85
2023-05-12T15:34:33.785Z,28.61
2023-05-12T15:38:33.280Z,28.32
2023-05-12T15:42:33.371Z,28.21
2023-05-12T15:46:32.835Z,28.21
2023-05-12T15:50:32.338Z,28.06
2023-05-12T15:54:31.881Z,27.85
2023-05-12T15:58:27.302Z,27.85
2023-05-12T16:02:26.895Z,27.87
2023-05-12T16:06:22.111Z,27.68
2023-05-12T16:10:21.449Z,27.42
2023-05-12T16:14:19.203Z,27.22
2023-05-12T16:18:14.513Z,26.99
2023-05-12T16:22:14.001Z,26.93
2023-05-12T16:26:09.338Z,26.87
2023-05-12T16:30:08.819Z,26.78
2023-05-12T16:34:04.271Z,26.62
2023-05-12T16:38:03.276Z,26.45
2023-05-12T16:41:58.093Z,26.26
2023-05-12T16:45:57.655Z,26.17
2023-05-12T16:49:53.557Z,25.94
2023-05-12T16:53:52.847Z,25.44
2023-05-12T16:57:48.481Z,25.24
2023-05-12T17:01:47.793Z,25.01
2023-05-12T17:05:43.507Z,24.88
2023-05-12T17:09:42.824Z,24.59
2023-05-12T17:13:38.326Z,24.31
2023-05-12T17:17:38.106Z,24.12
2023-05-12T17:21:33.665Z,23.92
2023-05-12T17:25:32.804Z,23.63
2023-05-12T17:29:28.734Z,23.46
2023-05-12T17:33:27.683Z,23.30
2023-05-12T17:37:23.584Z,23.00
2023-05-12T17:41:22.752Z,22.81
2023-05-12T17:45:18.639Z,22.71
2023-05-12T17:49:17.881Z,22.50
2023-05-12T17:53:13.219Z,22.21
2023-05-12T17:57:12.424Z,22.13
2023-05-12T18:01:07.674Z,21.93
2023-05-12T18:05:06.946Z,21.89
2023-05-12T18:09:02.440Z,21.45
2023-05-12T18:13:01.548Z,21.36
2023-05-12T18:16:57.531Z,21.29
2023-05-12T18:20:57.002Z,21.31
2023-05-12T18:24:52.696Z,21.33
2023-05-12T18:28:51.934Z,21.22
2023-05-12T18:32:47.488Z,20.97
2023-05-12T18:36:46.950Z,21.01
2023-05-12T18:40:42.318Z,20.80
2023-05-12T18:44:41.582Z,20.66
2023-05-12T18:48:37.505Z,20.30
2023-05-12T18:52:36.327Z,20.17
2023-05-12T18:56:31.798Z,19.95
2023-05-12T19:00:31.116Z,19.86
2023-05-12T19:04:26.450Z,19.66
2023-05-12T19:08:24.432Z,19.55
2023-05-12T19:12:26.375Z,19.19
2023-05-12T19:16:21.704Z,19.02
2023-05-12T19:20:21.326Z,18.76
2023-05-12T19:24:16.693Z,18.64
2023-05-12T19:28:16.212Z,18.37
2023-05-12T19:32:01.197Z,18.31
2023-05-12T19:35:46.265Z,18.25
2023-05-12T19:39:31.374Z,18.03
2023-05-12T19:43:16.245Z,17.66
2023-05-12T19:47:01.406Z,17.64
2023-05-12T19:50:46.480Z,17.63
2023-05-12T19:54:39.427Z,17.53
2023-05-12T19:58:38.820Z,17.39
2023-05-12T20:02:34.652Z,17.20
2023-05-12T20:06:34.262Z,17.10
2023-05-12T20:10:29.833Z,16.99
2023-05-12T20:14:29.280Z,16.87
2023-05-12T20:18:24.907Z,16.75
2023-05-12T20:22:24.343Z,16.33
2023-05-12T20:26:19.465Z,16.15
2023-05-12T20:30:16.517Z,15.70
2023-05-12T20:34:01.553Z,15.18
2023-05-12T20:37:46.859Z,15.11
2023-05-12T20:41:31.924Z,15.00
2023-05-12T20:45:17.061Z,14.89
2023-05-12T20:49:08.578Z,14.91
2023-05-12T20:53:07.769Z,14.68
2023-05-12T20:57:02.598Z,14.69
2023-05-12T21:01:01.695Z,14.48
2023-05-12T21:04:56.983Z,14.35
2023-05-12T21:08:56.366Z,14.29
2023-05-12T21:12:52.078Z,14.25
2023-05-12T21:16:37.215Z,14.22
2023-05-12T21:20:22.273Z,14.29
2023-05-12T21:24:22.196Z,14.37
2023-05-12T21:28:17.642Z,14.34
2023-05-12T21:32:16.892Z,14.38
2023-05-12T21:36:12.681Z,14.27
2023-05-12T21:40:12.267Z,14.27
2023-05-12T21:44:09.176Z,14.13
2023-05-12T21:48:09.650Z,14.11
2023-05-12T21:52:04.970Z,13.92
2023-05-12T21:56:04.579Z,13.81
2023-05-12T21:59:59.866Z,13.72
2023-05-12T22:03:59.557Z,13.62
2023-05-12T22:07:55.026Z,13.69
2023-05-12T22:11:54.525Z,13.82
2023-05-12T22:15:50.149Z,13.53
2023-05-12T22:19:50.065Z,13.74
2023-05-12T22:23:45.745Z,13.57
2023-05-12T22:27:44.827Z,13.57
2023-05-12T22:31:40.125Z,13.51
2023-05-12T22:35:39.738Z,13.39
2023-05-12T22:39:34.789Z,13.43
2023-05-12T22:43:34.003Z,13.31
2023-05-12T22:47:30.029Z,13.31
2023-05-12T22:51:29.404Z,13.22
2023-05-12T22:55:25.222Z,13.22
2023-05-12T22:59:24.408Z,13.18
2023-05-12T23:03:19.790Z,13.02
2023-05-12T23:07:18.783Z,13.01
2023-05-12T23:11:14.028Z,12.91
2023-05-12T23:15:13.573Z,12.81
2023-05-12T23:19:08.962Z,12.71
2023-05-12T23:23:08.617Z,12.47
2023-05-12T23:27:03.979Z,12.48
2023-05-12T23:31:02.864Z,12.48
2023-05-12T23:34:58.120Z,12.45
2023-05-12T23:38:57.862Z,12.46
2023-05-12T23:42:53.364Z,12.41
2023-05-12T23:46:52.359Z,12.40
2023-05-12T23:50:47.870Z,12.37
2023-05-12T23:54:47.160Z,12.41
2023-05-12T23:58:42.877Z,12.33
